TAPATFFF

Guest
Details From TAPA - Antigua - V C Bird Intl
To TFFF - Martinique/Aime Cesaire Intl
Flight Number -
Tags generated
Created
Modified
Stats Distance 160 nm / 295 km
Max Altitude 11,000 ft / 3,353 m
Waypoints 3
Social Downloads 12
Likes 0
Share VATSIM

Download

Looking for another format? Having issues loading an existing format? Contact us
Advertisement - Login to hide

Notes

Basic altitude profile: - Ascent Rate: 2100ft/min - Ascent Speed: 250kts - Cruise Altitude: 12000ft - Cruise Speed: 320kts - Descent Rate: 1800ft/min - Descent Speed: 250kts

Route

TAPA DOM TFFF

ID Type Via Altitude Latitude Longitude Leg Dist Tot Dist Heading (true) Name
O TAPA APT - 0 ft / 0 m 17.13674˚ -61.79266˚ - 0 nm - Antigua - V C Bird Intl
DOM NDB - 11,000 ft / 3,353 m 15.55094˚ -61.29564˚ 99 nm 99 nm 163° / 163° MELVILLE HALL NDB
O TFFF APT - 0 ft / 0 m 14.59103˚ -61.00317˚ 60 nm 159 nm 164° / 164° Martinique/Aime Cesaire Intl

Altitude Profile

Advertisement - Login to hide

TAPA

Details ICAO TAPA (ANU)
Name Antigua - V C Bird Intl
Region Antigua and Barbuda
Timezone America/Antigua (UTC-4.0)
Stats Elevation 62 ft / 19 m (AMSL)
Location 17.136737° -61.792662°
Runways 1
Magnetic Variation 14.767° W

METAR

TAPA 151000Z 09009KT 9999 -SHRA SCT017 SCT036 25/22 Q1017 NOSIG

Decode

TAF

TAF TAPA 142300Z 1500/1524 08012KT 999 SCT020

Decode

Departure Runways

ID Width Length Bearing (true) Bearing (mag) Surface Threshold Offset Overrun Length
07 148 ft / 45 m 9,022 ft / 2,750 m 58.28° 73.05° Asphalt 656 ft / 200 m 0 ft / 0 m
25 148 ft / 45 m 9,022 ft / 2,750 m 238.29° 253.06° Asphalt 0 ft / 0 m 0 ft / 0 m

TFFF

Details ICAO TFFF (FDF)
Name Martinique/Aime Cesaire Intl
Region France (Guadeloupe, Martinique, Saint Barthélemy, Saint Martin)
Timezone America/Martinique (UTC-4.0)
Stats Elevation 16 ft / 5 m (AMSL)
Location 14.591032° -61.003173°
Runways 1
Magnetic Variation 15.058° W

METAR

TFFF 151030Z AUTO 07003KT 9999 FEW030/// BKN110/// ///TCU 25/21 Q1015 TEMPO 4000 SHRA

Decode

TAF

TAF TFFF 150500Z 1506/1606 10004KT 9999 FEW025 PROB30 TEMPO 1506/1514 4000 SHRA FEW020TCU BECMG 1514/1516 SCT023

Decode

Destination Runways

ID Width Length Bearing (true) Bearing (mag) Surface Threshold Offset Overrun Length
09 148 ft / 45 m 9,852 ft / 3,003 m 79.93° 94.99° Asphalt 0 ft / 0 m 0 ft / 0 m
27 148 ft / 45 m 9,852 ft / 3,003 m 259.94° 275.00° Asphalt 820 ft / 250 m 948 ft / 289 m

Approach Navaids

Runway Type Ident Frequency Range Bearing (true) Bearing (mag) Slope Elevation
09 Localiser FF 109.90 MHz 18 nm / 33 km 79.90° 94.96° - 16 ft / 5 m (AMSL)
09 Glidescope FF 109.90 MHz 10 nm / 19 km 79.93° 94.99° 3.00° 16 ft / 5 m (AMSL)

Popular Alternatives